Главная страница
METAR-TAF:

METAR-TAF

Аэропорты :

Роскилле, Дания

широта: 55-35N, долгота: 012-08E, высота над уровнем моря: 44 м

Текущие метеонаблюдения

Эта сводка был подготовлена 38 минут назад, в 09:20 UTC
Ветер 8 Узел от восточно-юго-восточный, изменяющийся между восточный и юго-юго-восточный
Температура 26°C
Влажность 45%
Давление 1022 hPa
Видимость 10 км и более

METAR: EKRK 060920Z AUTO 12008KT 090V160 9999 NCD 26/13 Q1022

Время: 11:58 (09:58 UTC)

Прогноз

Эта сводка был подготовлена 1 час и 56 минут назад, в 08:02 UTC
Прогноз действительный с 06-го 09 UTC до 06-го 18 UTC
Ветер 8 Узел от юго-юго-восточный
Видимость 10 км и более
Нет облачности ниже 1500 м, и нет кучево-дождевой облачности

TAF: EKRK 060802Z 0609/0618 15008KT CAVOK

Метеонаблюдения и прогнозы для более 4000 аэропортов (сводки METAR и TAF).

Имеющиеся станции представлены на карте желтыми и красными точками.

Чтобы увидеть название станции, наведите на нее мышь.

Затем щелкните, чтобы увидеть метеонаблюдения и метеопрогнозы.

Управление картой: чтобы увеличить масштаб, щелкните зеленые кнопки с черным крестиком; чтобы уменьшить масштаб, щелкните зеленую кнопку с тире; для просмотра соседних карт щелкайте зеленые стрелки.


METAR-TAF: